createdAt,value
2018-07-23T02:33:05.503Z,99.90
2018-07-23T02:35:36.381Z,99.90
2018-07-23T02:38:08.328Z,99.90
2018-07-23T02:40:38.820Z,99.90
2018-07-23T02:43:09.468Z,99.90
2018-07-23T02:45:40.044Z,99.90
2018-07-23T02:48:19.229Z,99.90
2018-07-23T02:51:11.481Z,99.90
2018-07-23T03:02:31.617Z,99.90
2018-07-23T03:05:24.462Z,99.90
2018-07-23T03:08:10.449Z,99.90
2018-07-23T03:11:03.330Z,99.90
2018-07-23T03:13:49.116Z,99.90
2018-07-23T03:16:36.312Z,99.90
2018-07-23T03:19:20.154Z,99.90
2018-07-23T03:22:01.797Z,99.90
2018-07-23T03:24:53.722Z,99.90
2018-07-23T03:27:43.650Z,99.90
2018-07-23T03:30:36.732Z,99.90
2018-07-23T03:33:32.046Z,99.90
2018-07-23T03:39:17.856Z,99.90
2018-07-23T03:42:15.030Z,99.90
2018-07-23T03:45:08.005Z,99.90
2018-07-23T03:48:02.982Z,99.90
2018-07-23T03:50:57.796Z,99.90
2018-07-23T03:56:59.592Z,99.90
2018-07-23T03:59:52.008Z,99.90
2018-07-23T04:02:38.743Z,99.90
2018-07-23T04:05:38.541Z,99.90
2018-07-23T04:08:32.626Z,99.90
2018-07-23T04:17:40.038Z,99.90
2018-07-23T04:25:22.889Z,99.90
2018-07-23T04:28:26.673Z,99.90
2018-07-23T04:31:15.914Z,99.90
2018-07-23T04:36:57.482Z,99.90
2018-07-23T04:39:50.168Z,99.90
2018-07-23T04:50:41.495Z,99.90
2018-07-23T04:56:30.910Z,99.90
2018-07-23T05:02:34.403Z,99.90
2018-07-23T05:08:22.572Z,99.90
2018-07-23T05:14:30.379Z,99.90
2018-07-23T05:17:28.964Z,99.90
2018-07-23T05:20:18.613Z,99.90
2018-07-23T05:23:08.520Z,99.90
2018-07-23T05:26:00.344Z,99.90
2018-07-23T05:28:54.917Z,99.90
2018-07-23T05:37:50.209Z,99.90
2018-07-23T05:52:23.027Z,99.90
2018-07-23T05:55:12.414Z,99.90
2018-07-23T06:01:11.465Z,99.90
2018-07-23T06:09:49.437Z,99.90
2018-07-23T06:12:40.296Z,99.90
2018-07-23T06:15:26.284Z,99.90
2018-07-23T06:18:09.664Z,99.90
2018-07-23T06:20:54.684Z,99.90
2018-07-23T06:23:38.460Z,99.90
2018-07-23T06:32:46.341Z,99.90
2018-07-23T06:35:44.922Z,99.90
2018-07-23T06:38:29.520Z,99.90
2018-07-23T06:41:21.481Z,99.90
2018-07-23T06:44:16.419Z,99.90
2018-07-23T06:50:20.468Z,99.90
2018-07-23T06:53:09.539Z,99.90
2018-07-23T06:56:03.919Z,99.90
2018-07-23T06:58:58.471Z,99.90
2018-07-23T07:13:08.538Z,99.90
2018-07-23T07:16:01.139Z,99.90
2018-07-23T07:21:38.381Z,99.90
2018-07-23T07:24:41.016Z,99.90
2018-07-23T07:27:24.686Z,99.90
2018-07-23T07:33:05.374Z,99.90
2018-07-23T07:35:55.914Z,99.90
2018-07-23T07:41:59.228Z,99.90
2018-07-23T07:44:50.337Z,99.90
2018-07-23T07:47:24.689Z,99.90
2018-07-23T07:53:02.681Z,99.90
2018-07-23T07:56:21.565Z,99.90
2018-07-23T08:02:38.630Z,99.90
2018-07-23T08:05:35.424Z,99.90
2018-07-23T08:08:37.854Z,99.90
2018-07-23T08:14:51.578Z,99.90
2018-07-23T08:17:46.151Z,99.90
2018-07-23T08:20:54.257Z,99.90
2018-07-23T08:24:15.276Z,99.90
2018-07-23T08:27:08.618Z,99.90
2018-07-23T08:30:07.421Z,99.90
2018-07-23T08:33:05.929Z,99.90
2018-07-23T08:36:07.563Z,99.90
2018-07-23T08:39:05.038Z,99.90
2018-07-23T08:42:14.809Z,99.90
2018-07-23T08:55:35.603Z,99.90
2018-07-23T08:58:31.067Z,99.90
2018-07-23T09:04:11.375Z,99.90
2018-07-23T09:06:54.797Z,99.90
2018-07-23T09:13:06.336Z,99.90
2018-07-23T09:16:05.261Z,99.90
2018-07-23T09:19:03.175Z,99.90
2018-07-23T09:25:02.993Z,99.90
2018-07-23T09:28:12.608Z,99.90
2018-07-23T09:31:08.248Z,99.90
2018-07-23T09:37:18.065Z,99.90
2018-07-23T09:40:14.521Z,99.90
2018-07-23T09:43:03.105Z,99.90
2018-07-23T09:45:56.941Z,99.90
2018-07-23T09:48:51.446Z,99.90
2018-07-23T09:51:38.890Z,99.90
2018-07-23T09:54:27.956Z,99.90
2018-07-23T09:57:10.593Z,99.90
2018-07-23T09:59:41.491Z,99.90
2018-07-23T10:18:21.366Z,99.90
2018-07-23T10:27:55.807Z,99.90
2018-07-23T10:30:50.682Z,99.90
2018-07-23T10:33:51.637Z,99.90
2018-07-23T10:36:43.564Z,99.90
2018-07-23T10:39:26.151Z,99.90
2018-07-23T10:45:21.721Z,99.90
2018-07-23T10:48:17.241Z,99.90
2018-07-23T10:54:09.882Z,99.90
2018-07-23T10:56:54.851Z,99.90
2018-07-23T10:59:43.958Z,99.90
2018-07-23T11:02:37.213Z,99.90
2018-07-23T11:05:32.194Z,99.90
2018-07-23T11:08:23.312Z,98.60
2018-07-23T11:11:03.819Z,98.10
2018-07-23T11:13:57.922Z,98.10
2018-07-23T11:16:35.749Z,98.10
2018-07-23T11:22:10.189Z,97.30
2018-07-23T11:24:52.783Z,97.60
2018-07-23T11:27:31.494Z,96.80
2018-07-23T11:30:04.899Z,95.70
2018-07-23T11:33:00.374Z,96.10
2018-07-23T11:35:50.544Z,96.10
2018-07-23T11:41:34.146Z,96.50
2018-07-23T11:44:22.676Z,96.10
2018-07-23T11:47:07.315Z,94.60
2018-07-23T11:50:04.221Z,94.00
2018-07-23T11:52:50.041Z,94.00
2018-07-23T11:55:33.262Z,93.80
2018-07-23T11:58:21.972Z,95.10
2018-07-23T12:07:52.939Z,94.80
2018-07-23T12:10:50.628Z,93.20
2018-07-23T12:13:49.501Z,92.50
2018-07-23T12:17:38.346Z,92.40
2018-07-23T12:21:02.934Z,92.60
2018-07-23T12:30:16.902Z,94.00
2018-07-23T12:33:13.377Z,94.60
2018-07-23T12:35:59.936Z,93.40
2018-07-23T12:38:43.984Z,92.70
2018-07-23T12:42:47.214Z,93.30
2018-07-23T12:46:00.746Z,92.20
2018-07-23T12:52:07.346Z,92.60
2018-07-23T12:58:16.717Z,91.50
2018-07-23T13:01:02.965Z,92.50
2018-07-23T13:03:50.778Z,91.40
2018-07-23T13:06:25.964Z,91.80
2018-07-23T13:09:12.761Z,92.00
2018-07-23T13:11:57.725Z,91.50
2018-07-23T13:14:44.740Z,90.90
2018-07-23T13:17:26.142Z,90.30
2018-07-23T13:20:13.900Z,88.80
2018-07-23T13:22:47.178Z,90.10
2018-07-23T13:25:28.857Z,90.40
2018-07-23T13:28:03.177Z,90.10
2018-07-23T13:30:48.976Z,90.00
2018-07-23T13:33:22.796Z,88.30
2018-07-23T13:36:10.549Z,86.50
2018-07-23T13:39:03.129Z,86.80
2018-07-23T13:41:56.960Z,88.10
2018-07-23T13:44:54.160Z,87.20
2018-07-23T13:47:48.589Z,88.80
2018-07-23T13:50:36.953Z,87.00
2018-07-23T13:56:04.806Z,90.50
2018-07-23T13:58:41.149Z,89.80
2018-07-23T14:01:21.839Z,89.10
2018-07-23T14:04:00.923Z,90.30
2018-07-23T14:06:39.300Z,90.40
2018-07-23T14:09:24.633Z,90.40
2018-07-23T14:11:55.681Z,90.30
2018-07-23T14:14:41.500Z,90.70
2018-07-23T14:17:51.687Z,90.10
2018-07-23T14:23:37.397Z,92.50
2018-07-23T14:26:18.065Z,89.00
2018-07-23T14:29:04.397Z,89.20
2018-07-23T14:34:30.774Z,89.60
2018-07-23T14:37:05.531Z,87.90
2018-07-23T14:39:41.256Z,88.60
2018-07-23T14:42:17.192Z,88.00
2018-07-23T14:44:50.400Z,87.70
2018-07-23T14:47:29.666Z,86.30
2018-07-23T14:50:29.149Z,86.10
2018-07-23T14:53:03.816Z,88.30
2018-07-23T14:55:37.548Z,86.30
2018-07-23T14:58:22.176Z,85.20
2018-07-23T15:00:57.233Z,85.30
2018-07-23T15:03:32.983Z,83.50
2018-07-23T15:06:25.163Z,83.90
2018-07-23T15:09:03.003Z,83.20
2018-07-23T15:15:25.985Z,85.40
2018-07-23T15:18:07.652Z,83.00
2018-07-23T15:21:00.218Z,85.30
2018-07-23T15:24:08.460Z,86.70
2018-07-23T15:26:59.535Z,86.00
2018-07-23T15:33:03.007Z,86.70
2018-07-23T15:55:56.951Z,84.10
2018-07-23T15:59:14.397Z,82.30
2018-07-23T16:02:12.726Z,82.90
2018-07-23T16:05:11.936Z,84.00
2018-07-23T16:08:01.460Z,86.00
2018-07-23T16:17:54.398Z,86.80
2018-07-23T16:20:49.893Z,86.90
2018-07-23T16:39:19.106Z,86.20
2018-07-23T16:41:56.780Z,88.20
2018-07-23T16:44:33.434Z,87.10
2018-07-23T16:47:24.584Z,88.40
2018-07-23T16:50:06.661Z,88.30
2018-07-23T16:55:46.527Z,86.40
2018-07-23T16:58:43.887Z,86.80
2018-07-23T17:01:29.262Z,87.80
2018-07-23T17:09:47.357Z,87.40
2018-07-23T17:12:25.414Z,90.00
2018-07-23T17:14:58.383Z,90.30
2018-07-23T17:17:28.962Z,90.30
2018-07-23T17:20:05.392Z,90.10
2018-07-23T17:22:36.186Z,90.10
2018-07-23T17:25:07.435Z,90.80
2018-07-23T17:27:37.949Z,90.40
2018-07-23T17:30:11.369Z,90.80
2018-07-23T17:32:49.810Z,90.40
2018-07-23T17:35:28.112Z,90.50
2018-07-23T17:38:07.074Z,91.00
2018-07-23T17:40:45.560Z,90.80
2018-07-23T17:43:21.865Z,90.70
2018-07-23T17:45:59.050Z,91.00
2018-07-23T17:48:34.869Z,90.90
2018-07-23T17:51:12.989Z,90.90
2018-07-23T17:53:47.257Z,90.70
2018-07-23T17:56:34.526Z,90.70
2018-07-23T17:59:18.363Z,91.30
2018-07-23T18:02:12.748Z,91.20
2018-07-23T18:05:03.375Z,91.50
2018-07-23T18:08:01.959Z,91.20
2018-07-23T18:10:55.918Z,91.10
2018-07-23T18:13:43.949Z,90.70
2018-07-23T18:16:36.652Z,90.80
2018-07-23T18:25:53.608Z,91.10
2018-07-23T18:29:23.387Z,91.00
2018-07-23T18:32:09.974Z,90.80
2018-07-23T18:35:03.479Z,91.10
2018-07-23T18:38:18.231Z,91.50
2018-07-23T18:50:22.728Z,93.00
2018-07-23T18:53:30.955Z,93.30
2018-07-23T18:59:17.776Z,94.30
2018-07-23T19:02:11.889Z,94.90
2018-07-23T19:04:59.806Z,95.50
2018-07-23T19:14:04.096Z,96.90
2018-07-23T19:17:09.673Z,97.00
2018-07-23T19:20:08.813Z,97.80
2018-07-23T19:22:58.163Z,97.80
2018-07-23T19:25:56.466Z,98.10
2018-07-23T19:31:54.284Z,98.70
2018-07-23T19:34:48.514Z,98.40
2018-07-23T19:40:57.195Z,98.10
2018-07-23T19:43:45.469Z,98.00
2018-07-23T19:46:40.759Z,98.70
2018-07-23T19:50:01.226Z,99.80
2018-07-23T19:53:09.419Z,99.90
2018-07-23T19:56:00.775Z,99.90
2018-07-23T19:59:05.504Z,99.90
2018-07-23T20:04:13.521Z,99.90
2018-07-23T20:10:24.112Z,99.90
2018-07-23T20:13:24.244Z,99.90
2018-07-23T20:22:49.746Z,99.90
2018-07-23T20:26:13.719Z,99.90
2018-07-23T20:29:28.700Z,99.90
2018-07-23T20:35:29.293Z,99.90
2018-07-23T20:38:27.469Z,99.90
2018-07-23T20:41:36.173Z,99.90
2018-07-23T20:44:55.303Z,99.90
2018-07-23T20:50:50.991Z,99.90
2018-07-23T21:14:17.915Z,99.90
2018-07-23T21:17:20.142Z,99.90
2018-07-23T21:20:44.805Z,99.90
2018-07-23T21:39:06.195Z,99.90
2018-07-23T21:45:32.036Z,99.90
2018-07-23T21:48:32.761Z,99.90
2018-07-23T21:51:25.440Z,99.90
2018-07-23T21:54:26.130Z,99.90
2018-07-23T21:57:30.708Z,99.90
2018-07-23T22:00:34.494Z,99.90
2018-07-23T22:06:34.291Z,99.90
2018-07-23T22:09:32.797Z,99.90
2018-07-23T22:12:37.856Z,99.90
2018-07-23T22:18:35.123Z,99.90
2018-07-23T22:21:23.692Z,99.90
2018-07-23T22:24:13.425Z,99.90
2018-07-23T22:27:02.184Z,99.90
2018-07-23T22:38:38.385Z,99.90
2018-07-23T22:41:39.562Z,99.90
2018-07-23T22:44:37.403Z,99.90
2018-07-23T22:47:44.482Z,99.90
2018-07-23T22:50:52.963Z,99.90
2018-07-23T22:56:41.988Z,99.90
2018-07-23T22:59:33.091Z,99.90
2018-07-23T23:02:28.977Z,99.90
2018-07-23T23:11:44.836Z,99.90
2018-07-23T23:14:32.695Z,99.90
2018-07-23T23:20:16.960Z,99.90
2018-07-23T23:23:08.289Z,99.90
2018-07-23T23:26:01.903Z,99.90
2018-07-23T23:35:01.373Z,99.90
2018-07-23T23:37:54.407Z,99.90
2018-07-23T23:44:02.582Z,99.90
2018-07-23T23:50:08.418Z,99.90
2018-07-23T23:53:06.353Z,99.90
2018-07-23T23:56:01.468Z,99.90
2018-07-23T23:59:02.373Z,99.90
